Time;durP1;ratioP1;P1;durP2;ratioP2;P2;SDS_P1;SDS_P2;PMS_P1;PMS_P2;Temp;Humidity;BMP_temperature;BMP_pressure;BME280_temperature;BME280_humidity;BME280_pressure;Samples;Min_cycle;Max_cycle;Signal;HPM_P1;HPM_P2
2022/10/21 00:00:51;;;;;;;20.80;10.60;;;;;;;13.26;100.00;100721.91;5089987;28;20394;-65
2022/10/21 00:03:17;;;;;;;19.80;10.40;;;;;;;13.29;100.00;100728.69;5089977;28;20036;-65
2022/10/21 00:05:43;;;;;;;20.70;10.95;;;;;;;13.29;100.00;100728.69;5089960;28;20076;-65
2022/10/21 00:08:08;;;;;;;19.75;9.85;;;;;;;13.31;100.00;100729.28;5088538;28;20974;-65
2022/10/21 00:10:33;;;;;;;23.55;11.60;;;;;;;13.33;100.00;100732.56;5090015;28;20036;-66
2022/10/21 00:12:59;;;;;;;23.20;10.82;;;;;;;13.31;100.00;100721.25;5089884;28;20557;-65
2022/10/21 00:15:24;;;;;;;21.40;10.20;;;;;;;13.34;100.00;100721.63;5089450;28;20113;-65
2022/10/21 00:17:49;;;;;;;23.02;11.52;;;;;;;13.34;100.00;100713.59;5089825;28;20032;-65
2022/10/21 00:20:15;;;;;;;18.13;9.18;;;;;;;13.32;100.00;100710.31;5089150;28;20627;-65
2022/10/21 00:22:40;;;;;;;21.40;9.98;;;;;;;13.32;100.00;100712.97;5089549;28;20034;-65
2022/10/21 00:25:06;;;;;;;24.08;10.98;;;;;;;13.29;100.00;100717.97;5089560;28;20375;-65
2022/10/21 00:27:32;;;;;;;24.30;10.52;;;;;;;13.30;100.00;100712.38;5089725;28;20106;-65
2022/10/21 00:29:57;;;;;;;20.20;11.02;;;;;;;13.29;100.00;100718.78;5089533;28;20024;-65
2022/10/21 00:32:23;;;;;;;18.83;9.32;;;;;;;13.27;100.00;100714.69;5089611;28;20035;-65
2022/10/21 00:34:48;;;;;;;19.40;11.13;;;;;;;13.26;100.00;100708.50;5089722;28;20570;-66
2022/10/21 00:37:13;;;;;;;19.98;9.98;;;;;;;13.22;100.00;100706.44;5089537;28;20427;-65
2022/10/21 00:39:39;;;;;;;23.38;9.85;;;;;;;13.22;100.00;100711.81;5089164;28;20020;-66
2022/10/21 00:42:11;;;;;;;18.98;9.60;;;;;;;13.23;100.00;100713.44;5088829;28;20027;-66
2022/10/21 00:44:39;;;;;;;19.90;11.15;;;;;;;13.21;100.00;100708.31;5089044;28;20048;-65
2022/10/21 00:47:09;;;;;;;20.65;11.73;;;;;;;13.21;100.00;100713.66;5089361;28;20039;-66
2022/10/21 00:50:04;;;;;;;19.50;10.35;;;;;;;13.23;100.00;100718.78;5089274;28;20028;-65
2022/10/21 00:52:32;;;;;;;19.45;10.68;;;;;;;13.17;100.00;100715.13;5076193;28;20491;-65
2022/10/21 00:55:03;;;;;;;20.98;11.20;;;;;;;13.14;100.00;100707.53;5089419;28;20042;-66
2022/10/21 00:57:32;;;;;;;22.75;10.02;;;;;;;13.19;100.00;100718.41;5089334;28;20024;-66
2022/10/21 01:00:01;;;;;;;19.95;11.10;;;;;;;13.20;100.00;100713.88;5089256;28;20058;-65
2022/10/21 01:02:27;;;;;;;23.13;10.85;;;;;;;13.20;100.00;100703.97;5089190;28;20056;-65
2022/10/21 01:04:56;;;;;;;20.02;10.07;;;;;;;13.22;100.00;100704.59;5089127;28;20467;-66
2022/10/21 01:07:21;;;;;;;20.38;10.20;;;;;;;13.20;100.00;100697.81;5089426;28;20119;-65
2022/10/21 01:09:47;;;;;;;17.25;10.00;;;;;;;13.22;100.00;100701.09;5087765;28;20178;-65
2022/10/21 01:12:55;;;;;;;21.88;10.40;;;;;;;13.16;100.00;100694.75;5089207;28;20088;-65
2022/10/21 01:15:25;;;;;;;18.42;9.95;;;;;;;13.15;100.00;100679.72;5089186;28;20379;-66
2022/10/21 01:17:59;;;;;;;19.52;9.77;;;;;;;13.14;100.00;100676.22;5089106;28;20032;-65
2022/10/21 01:20:37;;;;;;;18.77;8.65;;;;;;;13.16;100.00;100679.50;5089148;28;20036;-66
2022/10/21 01:23:19;;;;;;;20.88;10.70;;;;;;;13.16;100.00;100679.50;5088658;28;20933;-65
2022/10/21 01:26:03;;;;;;;20.55;10.43;;;;;;;13.14;100.00;100678.06;5089159;28;20115;-65
2022/10/21 01:28:46;;;;;;;18.83;9.90;;;;;;;13.11;100.00;100668.63;5088871;28;20028;-65
2022/10/21 01:31:22;;;;;;;19.23;10.05;;;;;;;13.08;100.00;100669.06;5089029;28;20036;-66
2022/10/21 01:33:58;;;;;;;23.52;10.50;;;;;;;13.06;100.00;100648.91;5088969;28;20024;-65
2022/10/21 01:36:35;;;;;;;22.88;9.45;;;;;;;13.03;100.00;100660.03;5089038;28;20463;-65
2022/10/21 01:39:24;;;;;;;22.20;10.13;;;;;;;12.99;100.00;100650.78;5088994;28;20112;-65
2022/10/21 01:41:55;;;;;;;21.27;10.88;;;;;;;12.96;100.00;100646.69;5087289;28;20032;-66
2022/10/21 01:44:33;;;;;;;19.73;11.48;;;;;;;12.93;100.00;100650.63;5088238;28;20531;-65
2022/10/21 01:47:11;;;;;;;19.77;10.38;;;;;;;12.90;100.00;100645.72;5088698;28;20056;-65
2022/10/21 01:49:45;;;;;;;25.75;11.82;;;;;;;12.84;100.00;100630.53;5088433;28;20020;-65
2022/10/21 01:52:12;;;;;;;19.65;9.43;;;;;;;12.77;100.00;100635.09;5089004;28;20053;-65
2022/10/21 01:54:42;;;;;;;18.13;10.77;;;;;;;12.74;100.00;100629.38;5092519;28;20028;-65
2022/10/21 01:57:11;;;;;;;17.67;9.05;;;;;;;12.64;100.00;100625.31;5092484;28;20378;-66
2022/10/21 01:59:38;;;;;;;19.35;9.55;;;;;;;12.56;100.00;100612.19;5092249;28;20020;-65
2022/10/21 02:02:06;;;;;;;15.95;9.98;;;;;;;12.59;100.00;100619.78;5092483;28;20073;-67
2022/10/21 02:04:34;;;;;;;18.23;10.10;;;;;;;12.55;100.00;100621.25;5092260;28;20479;-68
2022/10/21 02:06:59;;;;;;;18.33;10.10;;;;;;;12.54;100.00;100616.91;5092254;28;20036;-68
2022/10/21 02:09:25;;;;;;;18.58;9.15;;;;;;;12.55;100.00;100605.22;5092190;28;20028;-68
2022/10/21 02:11:54;;;;;;;19.05;9.93;;;;;;;12.50;100.00;100594.31;5092097;28;20446;-68
2022/10/21 02:14:36;;;;;;;19.65;9.98;;;;;;;12.52;100.00;100602.94;5091885;28;20039;-68
2022/10/21 02:17:01;;;;;;;17.38;9.60;;;;;;;12.53;100.00;100598.44;5092140;28;20024;-68
2022/10/21 02:19:27;;;;;;;23.80;12.35;;;;;;;12.50;100.00;100602.34;5091811;28;20032;-68
2022/10/21 02:21:58;;;;;;;24.15;10.35;;;;;;;12.50;100.00;100594.31;5092111;28;20032;-68
2022/10/21 02:24:31;;;;;;;17.67;10.02;;;;;;;12.52;100.00;100599.44;5091557;28;20028;-68
2022/10/21 02:26:57;;;;;;;21.00;9.65;;;;;;;12.53;100.00;100591.22;5091574;28;20032;-68
2022/10/21 02:29:32;;;;;;;21.45;10.55;;;;;;;12.51;100.00;100590.59;5091589;28;20028;-68
2022/10/21 02:32:08;;;;;;;18.00;9.52;;;;;;;12.50;100.00;100587.13;5091673;28;20024;-68
2022/10/21 02:35:02;;;;;;;20.08;10.98;;;;;;;12.51;100.00;100585.25;5091362;28;20020;-68
2022/10/21 02:37:36;;;;;;;19.60;9.25;;;;;;;12.50;100.00;100600.50;5091793;28;20043;-69
2022/10/21 02:40:17;;;;;;;19.90;10.25;;;;;;;12.47;100.00;100592.06;5091663;28;20149;-68
2022/10/21 02:42:49;;;;;;;19.45;9.30;;;;;;;12.48;100.00;100597.22;5091372;28;20020;-68
2022/10/21 02:45:15;;;;;;;17.42;9.25;;;;;;;12.48;100.00;100599.88;5090727;28;20186;-68
2022/10/21 02:47:42;;;;;;;17.77;9.88;;;;;;;12.47;100.00;100592.91;5091083;28;20057;-68
2022/10/21 02:50:07;;;;;;;15.98;9.85;;;;;;;12.51;100.00;100598.63;5091488;28;20055;-68
2022/10/21 02:52:33;;;;;;;19.67;9.45;;;;;;;12.52;100.00;100600.25;5090037;28;20075;-68
2022/10/21 02:54:58;;;;;;;19.77;9.43;;;;;;;12.53;100.00;100601.91;5091395;28;20078;-68
2022/10/21 02:57:23;;;;;;;18.85;9.52;;;;;;;12.53;100.00;100588.53;5091439;28;20075;-68
2022/10/21 02:59:49;;;;;;;18.90;9.55;;;;;;;12.55;100.00;100594.50;5089811;28;20071;-68
2022/10/21 03:02:14;;;;;;;20.70;9.95;;;;;;;12.54;100.00;100586.69;5091189;28;20072;-68
2022/10/21 03:04:39;;;;;;;20.17;10.00;;;;;;;12.54;100.00;100586.69;5090774;28;20081;-68
2022/10/21 03:07:05;;;;;;;18.98;9.02;;;;;;;12.56;100.00;100587.28;5091056;28;20085;-68
2022/10/21 03:09:30;;;;;;;18.17;8.95;;;;;;;12.52;100.00;100570.84;5090786;28;20020;-68
2022/10/21 03:11:55;;;;;;;20.50;8.88;;;;;;;12.53;100.00;100575.16;5090903;28;20081;-68
2022/10/21 03:14:21;;;;;;;17.02;8.98;;;;;;;12.52;100.00;100578.84;5091086;28;20020;-68
2022/10/21 03:16:46;;;;;;;21.33;10.85;;;;;;;12.49;100.00;100587.31;5090850;28;20032;-68
2022/10/21 03:19:12;;;;;;;19.80;10.35;;;;;;;12.49;100.00;100584.66;5090932;28;20367;-68
2022/10/21 03:21:37;;;;;;;20.58;8.85;;;;;;;12.47;100.00;100584.03;5090309;28;20046;-68
2022/10/21 03:24:02;;;;;;;18.90;9.57;;;;;;;12.47;100.00;100576.84;5088907;28;20039;-68
2022/10/21 03:26:28;;;;;;;18.13;8.27;;;;;;;12.45;100.00;100580.78;5090449;28;20032;-68
2022/10/21 03:28:53;;;;;;;18.33;9.57;;;;;;;12.42;100.00;100575.88;5090566;28;20072;-68
2022/10/21 03:31:18;;;;;;;20.73;9.55;;;;;;;12.39;100.00;100574.44;5090529;28;20032;-68
2022/10/21 03:33:44;;;;;;;20.70;10.30;;;;;;;12.36;100.00;100577.53;5090741;28;20035;-68
2022/10/21 03:36:09;;;;;;;17.00;8.48;;;;;;;12.34;100.00;100576.94;5090504;28;20068;-68
2022/10/21 03:38:35;;;;;;;18.23;8.68;;;;;;;12.33;100.00;100575.28;5090497;28;20032;-68
2022/10/21 03:41:00;;;;;;;23.83;8.60;;;;;;;12.33;100.00;100582.50;5090298;28;20024;-68
2022/10/21 03:43:25;;;;;;;19.00;8.48;;;;;;;12.32;100.00;100581.69;5090128;28;20056;-68
2022/10/21 03:45:51;;;;;;;17.42;8.05;;;;;;;12.33;100.00;100591.34;5089904;28;20097;-68
2022/10/21 03:48:16;;;;;;;15.80;8.15;;;;;;;12.34;100.00;100578.78;5089859;28;20039;-68
2022/10/21 03:50:41;;;;;;;16.40;7.95;;;;;;;12.34;100.00;100573.41;5072015;28;20042;-68
2022/10/21 03:53:07;;;;;;;21.20;8.43;;;;;;;12.34;100.00;100576.94;5090208;28;20032;-68
2022/10/21 03:55:32;;;;;;;17.45;7.88;;;;;;;12.33;100.00;100571.78;5090182;28;20493;-68
2022/10/21 03:57:57;;;;;;;13.30;6.80;;;;;;;12.35;100.00;100569.72;5090264;28;20032;-68
2022/10/21 04:00:23;;;;;;;15.27;7.55;;;;;;;12.37;100.00;100571.16;5090121;28;20538;-68
2022/10/21 04:02:48;;;;;;;15.00;7.97;;;;;;;12.35;100.00;100561.72;5090144;28;20032;-68
2022/10/21 04:05:14;;;;;;;19.35;7.45;;;;;;;12.39;100.00;100562.91;5088629;28;20059;-68
2022/10/21 04:07:39;;;;;;;16.00;7.22;;;;;;;12.39;100.00;100554.88;5089975;28;20039;-68
2022/10/21 04:10:06;;;;;;;15.43;7.55;;;;;;;12.38;100.00;100561.28;5090011;28;20024;-68
2022/10/21 04:12:32;;;;;;;16.67;7.03;;;;;;;12.37;100.00;100557.78;5089893;28;20032;-68
2022/10/21 04:14:57;;;;;;;15.30;7.05;;;;;;;12.36;100.00;100566.00;5089368;28;20024;-68
2022/10/21 04:17:22;;;;;;;14.70;6.63;;;;;;;12.36;100.00;100566.81;5088081;28;20060;-68
2022/10/21 04:19:48;;;;;;;18.67;8.40;;;;;;;12.35;100.00;100569.72;5089591;28;20081;-67
2022/10/21 04:22:13;;;;;;;20.40;7.25;;;;;;;12.34;100.00;100570.75;5089709;28;20038;-67
2022/10/21 04:24:38;;;;;;;13.20;6.25;;;;;;;12.35;100.00;100572.41;5089564;28;20132;-67
2022/10/21 04:27:04;;;;;;;16.15;7.50;;;;;;;12.32;100.00;100559.47;5089534;28;20057;-68
2022/10/21 04:29:29;;;;;;;16.38;6.90;;;;;;;12.29;100.00;100558.03;5089100;28;20061;-68
2022/10/21 04:31:55;;;;;;;16.42;7.47;;;;;;;12.33;100.00;100566.44;5089638;28;20421;-68
2022/10/21 04:34:20;;;;;;;17.90;7.45;;;;;;;12.29;100.00;100566.06;5089562;28;20131;-68
2022/10/21 04:36:45;;;;;;;13.15;6.70;;;;;;;12.30;100.00;100569.56;5089575;28;20031;-68
2022/10/21 04:39:11;;;;;;;12.50;6.22;;;;;;;12.25;100.00;100562.16;5089532;28;20028;-68
2022/10/21 04:41:36;;;;;;;13.90;6.32;;;;;;;12.23;100.00;100581.09;5089527;28;20047;-68
2022/10/21 04:44:02;;;;;;;13.80;8.60;;;;;;;12.20;100.00;100570.81;5089143;28;20050;-68
2022/10/21 04:46:27;;;;;;;15.48;6.35;;;;;;;12.20;100.00;100580.72;5089166;28;20107;-68
2022/10/21 04:48:53;;;;;;;14.20;6.13;;;;;;;12.20;100.00;100580.72;5088916;28;20131;-68
2022/10/21 04:51:18;;;;;;;15.02;6.85;;;;;;;12.18;100.00;100574.75;5089152;28;20071;-68
2022/10/21 04:53:43;;;;;;;15.93;7.28;;;;;;;12.12;100.00;100573.75;5089297;28;20499;-68
2022/10/21 04:56:09;;;;;;;15.75;8.30;;;;;;;12.15;100.00;100580.53;5089175;28;20111;-68
2022/10/21 04:58:34;;;;;;;13.88;6.97;;;;;;;12.10;100.00;100578.47;5089332;28;20055;-68
2022/10/21 05:01:00;;;;;;;26.98;7.60;;;;;;;12.10;100.00;100577.66;5089289;28;20113;-68
2022/10/21 05:03:25;;;;;;;12.07;6.93;;;;;;;12.06;100.00;100569.28;5089147;28;20028;-68
2022/10/21 05:05:51;;;;;;;16.25;7.75;;;;;;;12.09;100.00;100571.50;5089401;28;20032;-68
2022/10/21 05:08:18;;;;;;;13.45;6.45;;;;;;;12.07;100.00;100569.03;5089052;28;20035;-68
2022/10/21 05:10:43;;;;;;;17.92;7.03;;;;;;;12.09;100.00;100570.69;5089171;28;20483;-68
2022/10/21 05:13:08;;;;;;;12.82;6.15;;;;;;;12.08;100.00;100572.56;5089271;28;20032;-68
2022/10/21 05:15:34;;;;;;;14.43;7.78;;;;;;;12.07;100.00;100574.38;5088626;28;20479;-68
2022/10/21 05:18:00;;;;;;;13.88;6.05;;;;;;;12.08;100.00;100569.88;5089128;28;20528;-68
2022/10/21 05:20:25;;;;;;;17.05;7.28;;;;;;;12.09;100.00;100568.03;5089084;28;20024;-68
2022/10/21 05:22:52;;;;;;;22.73;9.52;;;;;;;12.08;100.00;100564.53;5089180;28;20036;-68
2022/10/21 05:25:17;;;;;;;16.65;6.70;;;;;;;12.07;100.00;100563.69;5088805;28;20024;-68
2022/10/21 05:27:43;;;;;;;15.00;7.25;;;;;;;12.07;100.00;100566.38;5090076;28;20028;-68
2022/10/21 05:30:09;;;;;;;11.00;6.18;;;;;;;12.07;100.00;100561.03;5091284;28;20047;-68
2022/10/21 05:32:34;;;;;;;13.43;6.38;;;;;;;12.02;100.00;100555.50;5092635;28;20173;-68
2022/10/21 05:35:00;;;;;;;17.17;7.22;;;;;;;12.05;100.00;100554.25;5092920;28;20107;-68
2022/10/21 05:37:25;;;;;;;11.68;6.28;;;;;;;12.05;100.00;100541.72;5092741;28;20567;-68
2022/10/21 05:39:50;;;;;;;16.70;6.93;;;;;;;12.04;100.00;100545.41;5092736;28;20039;-68
2022/10/21 05:42:16;;;;;;;21.40;7.70;;;;;;;11.96;100.00;100532.31;5092750;28;20479;-68
2022/10/21 05:44:41;;;;;;;14.32;6.97;;;;;;;12.02;100.00;100549.34;5092412;28;20900;-68
2022/10/21 05:47:07;;;;;;;11.18;5.93;;;;;;;12.00;100.00;100543.41;5092786;28;20142;-68
2022/10/21 05:49:32;;;;;;;15.65;6.43;;;;;;;12.02;100.00;100541.31;5092519;28;20032;-68
2022/10/21 05:51:57;;;;;;;19.70;8.57;;;;;;;12.02;100.00;100536.78;5092306;28;20031;-68
2022/10/21 05:54:23;;;;;;;14.18;5.97;;;;;;;12.02;100.00;100535.97;5092456;28;20016;-68
2022/10/21 05:56:48;;;;;;;14.90;6.60;;;;;;;12.03;100.00;100526.94;5092486;28;20020;-68
2022/10/21 05:59:14;;;;;;;9.65;5.35;;;;;;;11.99;100.00;100523.84;5092390;28;20067;-68
2022/10/21 06:01:40;;;;;;;13.82;6.32;;;;;;;11.95;100.00;100524.50;5092196;28;20032;-68
2022/10/21 06:04:06;;;;;;;13.95;6.65;;;;;;;11.93;100.00;100519.38;5091986;28;20044;-68
2022/10/21 06:06:31;;;;;;;13.23;7.10;;;;;;;11.97;100.00;100530.44;5090760;28;20032;-68
2022/10/21 06:08:57;;;;;;;14.85;7.50;;;;;;;11.94;100.00;100539.72;5091446;28;20047;-69
2022/10/21 06:11:22;;;;;;;13.30;7.13;;;;;;;11.94;100.00;100529.03;5090668;28;20028;-68
2022/10/21 06:13:47;;;;;;;12.80;6.18;;;;;;;11.93;100.00;100527.38;5091700;28;20020;-68
2022/10/21 06:16:13;;;;;;;15.75;7.47;;;;;;;11.94;100.00;100522.84;5091911;28;20020;-69
2022/10/21 06:18:40;;;;;;;14.02;6.45;;;;;;;11.93;100.00;100523.91;5091938;28;20032;-68
2022/10/21 06:21:06;;;;;;;12.25;5.60;;;;;;;11.93;100.00;100521.22;5091797;28;20109;-68
2022/10/21 06:23:32;;;;;;;18.77;7.80;;;;;;;11.93;100.00;100531.91;5091723;28;20387;-68
2022/10/21 06:26:25;;;;;;;13.15;6.15;;;;;;;11.94;100.00;100526.34;5091792;28;20027;-68
2022/10/21 06:28:51;;;;;;;12.85;6.10;;;;;;;11.93;100.00;100535.41;5090414;28;20411;-68
2022/10/21 06:31:19;;;;;;;13.63;6.28;;;;;;;11.93;100.00;100531.91;5091596;28;20043;-69
2022/10/21 06:33:44;;;;;;;12.05;5.82;;;;;;;11.94;100.00;100533.56;5091294;28;20046;-68
2022/10/21 06:36:10;;;;;;;13.02;6.10;;;;;;;11.92;100.00;100540.94;5091516;28;20032;-68
2022/10/21 06:38:36;;;;;;;16.08;7.97;;;;;;;11.90;100.00;100535.84;5090872;28;20114;-68
2022/10/21 06:41:04;;;;;;;14.15;7.88;;;;;;;11.91;100.00;100542.00;5090988;28;20020;-68
2022/10/21 06:43:29;;;;;;;16.50;7.20;;;;;;;11.88;100.00;100540.56;5091109;28;20488;-68
2022/10/21 06:46:03;;;;;;;14.75;8.13;;;;;;;11.92;100.00;100538.28;5091402;28;20024;-68
2022/10/21 06:48:28;;;;;;;16.30;7.47;;;;;;;11.92;100.00;100543.63;5091163;28;20028;-68
2022/10/21 06:51:02;;;;;;;16.85;7.45;;;;;;;11.94;100.00;100560.28;5090882;28;20036;-68
2022/10/21 06:53:28;;;;;;;16.17;6.13;;;;;;;11.93;100.00;100559.47;5091042;28;20081;-68
2022/10/21 06:56:06;;;;;;;12.57;6.07;;;;;;;11.95;100.00;100568.09;5091283;28;20450;-68
2022/10/21 06:58:32;;;;;;;17.88;7.97;;;;;;;11.96;100.00;100575.06;5090763;28;20107;-68
2022/10/21 07:00:57;;;;;;;14.32;7.90;;;;;;;11.98;100.00;100580.22;5089912;28;20516;-69
2022/10/21 07:03:23;;;;;;;14.95;7.00;;;;;;;12.01;100.00;100585.94;5091126;28;20024;-68
2022/10/21 07:05:49;;;;;;;15.07;6.50;;;;;;;12.03;100.00;100578.53;5091080;28;20028;-68
2022/10/21 07:08:15;;;;;;;15.52;7.38;;;;;;;12.10;100.00;100591.03;5091143;28;20515;-69
2022/10/21 07:10:43;;;;;;;16.60;7.55;;;;;;;12.11;100.00;100590.84;5090901;28;20024;-69
2022/10/21 07:13:09;;;;;;;21.27;8.20;;;;;;;12.14;100.00;100594.94;5090890;28;20028;-68
2022/10/21 07:15:35;;;;;;;15.13;7.18;;;;;;;12.16;100.00;100601.72;5090406;28;20020;-68
2022/10/21 07:18:00;;;;;;;18.73;7.20;;;;;;;12.17;100.00;100608.69;5090704;28;20105;-68
2022/10/21 07:20:26;;;;;;;14.73;7.30;;;;;;;12.21;100.00;100607.25;5090548;28;20028;-68
2022/10/21 07:22:51;;;;;;;14.20;6.80;;;;;;;12.24;100.00;100616.69;5089387;28;20038;-68
2022/10/21 07:25:18;;;;;;;19.40;8.02;;;;;;;12.29;100.00;100622.22;5087384;28;20024;-66
2022/10/21 07:27:43;;;;;;;15.43;7.25;;;;;;;12.33;100.00;100620.75;5085813;28;20031;-68
2022/10/21 07:30:09;;;;;;;15.98;7.95;;;;;;;12.37;100.00;100626.50;5086414;28;20364;-68
2022/10/21 07:32:34;;;;;;;14.73;6.88;;;;;;;12.43;100.00;100623.78;5086408;28;20070;-68
2022/10/21 07:35:00;;;;;;;15.88;7.32;;;;;;;12.46;100.00;100620.66;5085812;28;20475;-68
2022/10/21 07:37:25;;;;;;;14.15;6.93;;;;;;;12.52;100.00;100610.97;5084928;28;20105;-68
2022/10/21 07:39:50;;;;;;;15.63;7.47;;;;;;;12.56;100.00;100609.50;5085989;28;20574;-69
2022/10/21 07:42:15;;;;;;;17.55;6.95;;;;;;;12.60;100.00;100610.72;5086180;28;20032;-68
2022/10/21 07:44:41;;;;;;;17.42;7.20;;;;;;;12.61;100.00;100604.34;5067861;28;20055;-68
2022/10/21 07:47:06;;;;;;;16.38;7.45;;;;;;;12.70;100.00;100612.91;5085859;28;20058;-68
2022/10/21 07:49:32;;;;;;;15.23;6.70;;;;;;;12.74;100.00;100611.44;5084068;28;20030;-69
2022/10/21 07:51:57;;;;;;;11.27;5.88;;;;;;;12.80;100.00;100613.25;5085113;28;20024;-69
2022/10/21 07:54:22;;;;;;;15.15;6.68;;;;;;;12.84;100.00;100601.09;5084976;28;20356;-67
2022/10/21 07:56:50;;;;;;;15.57;6.82;;;;;;;12.90;100.00;100605.56;5085240;28;20020;-68
2022/10/21 07:59:18;;;;;;;15.80;7.18;;;;;;;12.86;100.00;100590.16;5085567;28;20053;-68
2022/10/21 08:01:46;;;;;;;18.15;6.88;;;;;;;13.02;100.00;100610.19;5086021;28;20244;-67
2022/10/21 08:04:14;;;;;;;13.15;6.68;;;;;;;13.09;100.00;100608.28;5085047;28;20081;-68
2022/10/21 08:06:40;;;;;;;14.35;7.10;;;;;;;13.14;100.00;100613.81;5084702;28;20024;-68
2022/10/21 08:09:05;;;;;;;14.98;6.53;;;;;;;13.16;100.00;100603.72;5085858;28;20372;-68
2022/10/21 08:11:32;;;;;;;15.10;7.10;;;;;;;13.26;100.00;100616.59;5085374;28;20043;-66
2022/10/21 08:13:58;;;;;;;15.50;7.07;;;;;;;13.32;100.00;100627.28;5085294;28;20070;-68
2022/10/21 08:16:24;;;;;;;13.60;6.35;;;;;;;13.38;100.00;100613.00;5084980;28;20430;-68
2022/10/21 08:18:49;;;;;;;13.07;7.57;;;;;;;13.43;100.00;100614.19;5084899;28;20035;-68
2022/10/21 08:21:15;;;;;;;17.02;8.63;;;;;;;13.48;100.00;100612.50;5088127;28;20024;-67
2022/10/21 08:23:41;;;;;;;16.83;8.45;;;;;;;13.50;100.00;100599.69;5089541;28;20024;-65
2022/10/21 08:26:10;;;;;;;17.17;7.28;;;;;;;13.54;100.00;100602.75;5089548;28;20490;-67
2022/10/21 08:28:35;;;;;;;11.90;6.38;;;;;;;13.57;100.00;100602.28;5089711;28;20085;-68
2022/10/21 08:31:03;;;;;;;14.73;8.07;;;;;;;13.58;100.00;100598.59;5089650;28;20479;-67
2022/10/21 08:33:29;;;;;;;12.52;5.90;;;;;;;13.58;100.00;100614.66;5089487;28;20016;-66
2022/10/21 08:35:54;;;;;;;16.85;7.72;;;;;;;13.56;100.00;100611.38;5089152;28;20111;-67
2022/10/21 08:38:20;;;;;;;16.27;6.80;;;;;;;13.57;100.00;100629.09;5089056;28;20433;-67
2022/10/21 08:40:47;;;;;;;17.92;8.25;;;;;;;13.53;100.00;100626.03;5089290;28;20115;-68
2022/10/21 08:43:22;;;;;;;13.05;7.28;;;;;;;13.52;100.00;100632.44;5089112;28;20104;-67
2022/10/21 08:45:56;;;;;;;13.55;7.13;;;;;;;13.50;100.00;100626.50;5088884;28;20043;-67
2022/10/21 08:48:31;;;;;;;12.73;6.47;;;;;;;13.49;100.00;100621.34;5089168;28;20039;-67
2022/10/21 08:50:57;;;;;;;14.18;6.90;;;;;;;13.49;100.00;100626.69;5089184;28;20111;-67
2022/10/21 08:53:33;;;;;;;15.55;7.10;;;;;;;13.48;100.00;100628.56;5089130;28;20024;-67
2022/10/21 08:56:05;;;;;;;18.20;8.48;;;;;;;13.50;100.00;100634.53;5089103;28;20038;-67
2022/10/21 08:58:31;;;;;;;14.90;7.75;;;;;;;13.47;100.00;100624.25;5087793;28;20024;-66
2022/10/21 09:01:09;;;;;;;18.48;8.90;;;;;;;13.46;100.00;100625.28;5089306;28;20046;-66
2022/10/21 09:03:43;;;;;;;16.85;7.25;;;;;;;13.47;100.00;100632.28;5075400;28;20070;-67
2022/10/21 09:06:18;;;;;;;16.75;7.50;;;;;;;13.49;100.00;100643.63;5093306;28;20455;-67
2022/10/21 09:08:46;;;;;;;16.23;7.68;;;;;;;13.49;100.00;100643.63;5093319;28;20082;-67
2022/10/21 09:11:25;;;;;;;15.38;8.02;;;;;;;13.51;100.00;100633.47;5093310;28;20032;-67
2022/10/21 09:14:14;;;;;;;14.88;7.38;;;;;;;13.52;100.00;100653.06;5093200;28;20055;-67
2022/10/21 09:16:39;;;;;;;17.20;7.75;;;;;;;13.49;100.00;100651.66;5086261;28;20048;-67
2022/10/21 09:19:22;;;;;;;15.50;7.27;;;;;;;13.50;100.00;100647.94;5093253;28;20069;-67
2022/10/21 09:21:50;;;;;;;15.82;8.35;;;;;;;13.54;100.00;100641.06;5093178;28;20386;-66
2022/10/21 09:24:29;;;;;;;20.23;8.35;;;;;;;13.58;100.00;100644.94;5092941;28;20119;-67
2022/10/21 09:26:55;;;;;;;15.95;7.53;;;;;;;13.63;100.00;100643.47;5092950;28;20032;-67
2022/10/21 09:29:30;;;;;;;21.00;10.13;;;;;;;13.69;100.00;100643.41;5092923;28;20042;-67
2022/10/21 09:32:08;;;;;;;16.98;6.40;;;;;;;13.76;100.00;100640.66;5092725;28;20024;-65
2022/10/21 09:34:42;;;;;;;13.50;6.50;;;;;;;13.83;100.00;100644.06;5092762;28;20032;-65
2022/10/21 09:37:18;;;;;;;11.35;5.38;;;;;;;13.92;100.00;100639.25;5092850;28;20031;-65
2022/10/21 09:39:50;;;;;;;11.18;5.88;;;;;;;14.00;100.00;100642.44;5092470;28;20036;-65
2022/10/21 09:42:16;;;;;;;9.40;4.72;;;;;;;14.05;100.00;100649.81;5092568;28;20059;-65
2022/10/21 09:44:43;;;;;;;16.65;6.57;;;;;;;14.12;100.00;100644.34;5092372;28;20554;-65
2022/10/21 09:47:21;;;;;;;11.45;5.22;;;;;;;14.24;100.00;100646.06;5092582;28;20032;-65
2022/10/21 09:49:50;;;;;;;12.07;6.05;;;;;;;14.32;100.00;100633.38;5092587;28;20478;-65
2022/10/21 09:52:18;;;;;;;12.75;5.60;;;;;;;14.44;100.00;100631.59;5092585;28;20394;-65
2022/10/21 09:54:44;;;;;;;12.32;6.38;;;;;;;14.52;100.00;100636.63;5091108;28;20016;-65
2022/10/21 09:57:14;;;;;;;13.52;7.80;;;;;;;14.57;100.00;100634.09;5091965;28;20031;-65
2022/10/21 10:00:09;;;;;;;13.50;6.97;;;;;;;14.67;100.00;100636.22;5092199;28;20024;-65
2022/10/21 10:02:37;;;;;;;12.15;5.53;;;;;;;14.65;100.00;100631.09;5087497;28;20047;-65
2022/10/21 10:05:37;;;;;;;13.98;7.22;;;;;;;14.71;100.00;100631.22;5092274;28;20032;-65
2022/10/21 10:08:41;;;;;;;11.80;6.32;;;;;;;14.75;100.00;100637.75;5092223;28;20064;-65
2022/10/21 10:11:09;;;;;;;11.77;5.85;;;;;;;14.75;100.00;100633.22;5091900;28;20047;-65
2022/10/21 10:13:37;;;;;;;12.45;5.32;;;;;;;14.81;100.00;100642.22;5091329;28;20036;-65
2022/10/21 10:16:28;;;;;;;13.80;6.25;;;;;;;14.87;100.00;100643.97;5092065;28;20024;-65
2022/10/21 10:19:23;;;;;;;11.75;5.88;;;;;;;14.90;100.00;100641.66;5092035;28;20036;-65
2022/10/21 10:22:07;;;;;;;12.23;5.75;;;;;;;14.95;100.00;100648.22;5091849;28;20528;-65
2022/10/21 10:24:32;;;;;;;10.38;5.50;;;;;;;14.99;100.00;100654.75;5091851;28;20020;-65
2022/10/21 10:27:03;;;;;;;14.07;5.63;;;;;;;14.99;100.00;100652.91;5091726;28;20035;-65
2022/10/21 10:29:29;;;;;;;11.75;6.47;;;;;;;15.03;100.00;100645.19;5091767;28;20063;-65
2022/10/21 10:31:57;;;;;;;12.00;5.18;;;;;;;15.11;100.00;100664.44;5091805;28;20152;-65
2022/10/21 10:34:36;;;;;;;11.93;6.55;;;;;;;15.16;100.00;100661.09;5091599;28;20024;-65
2022/10/21 10:37:15;;;;;;;10.52;5.22;;;;;;;15.21;100.00;100665.78;5091568;28;20066;-65
2022/10/21 10:39:45;;;;;;;9.88;5.43;;;;;;;15.25;100.00;100664.28;5091347;28;20410;-65
2022/10/21 10:42:18;;;;;;;12.05;5.30;;;;;;;15.32;100.00;100664.94;5091680;28;20085;-65
2022/10/21 10:44:44;;;;;;;15.30;5.82;;;;;;;15.40;100.00;100663.78;5091278;28;20136;-65
2022/10/21 10:47:21;;;;;;;13.70;5.65;;;;;;;15.49;100.00;100663.22;5091542;28;20060;-65
2022/10/21 10:49:49;;;;;;;14.98;5.70;;;;;;;15.59;100.00;100665.31;5091615;28;20067;-65
2022/10/21 10:52:21;;;;;;;12.45;5.90;;;;;;;15.69;100.00;100673.66;5091472;28;20415;-65
2022/10/21 10:54:47;;;;;;;;;;;;;;;15.82;100.00;100666.38;5074458;28;20379;-67
2022/10/21 10:57:19;;;;;;;9.88;5.07;;;;;;;15.90;100.00;100666.00;5086479;28;19915;-67
2022/10/21 10:59:54;;;;;;;12.18;5.32;;;;;;;15.93;100.00;100654.81;5086671;28;20161;-67
2022/10/21 11:02:22;;;;;;;10.02;5.82;;;;;;;16.05;100.00;100662.84;5086404;28;20016;-67
2022/10/21 11:05:06;;;;;;;13.40;4.85;;;;;;;16.17;100.00;100669.00;5086796;28;20478;-67
2022/10/21 11:07:38;;;;;;;10.55;5.00;;;;;;;16.23;100.00;100667.25;5086242;28;20045;-66
2022/10/21 11:10:12;;;;;;;11.07;5.97;;;;;;;16.34;100.00;100667.19;5084825;28;20468;-66
2022/10/21 11:12:37;;;;;;;8.52;4.57;;;;;;;16.40;100.00;100660.03;5086190;28;20033;-66
2022/10/21 11:15:06;;;;;;;8.52;4.53;;;;;;;16.49;100.00;100661.28;5085657;28;20382;-66
2022/10/21 11:17:40;;;;;;;11.30;4.43;;;;;;;16.59;100.00;100642.63;5087049;28;20023;-67